createdAt,value
2018-12-13T00:00:01.671Z,102074.02
2018-12-13T00:02:28.827Z,102071.81
2018-12-13T00:04:55.935Z,102065.55
2018-12-13T00:07:23.042Z,102063.43
2018-12-13T00:09:50.266Z,102056.49
2018-12-13T00:12:17.371Z,102052.77
2018-12-13T00:14:44.474Z,102057.43
2018-12-13T00:17:11.818Z,102050.47
2018-12-13T00:19:38.940Z,102054.37
2018-12-13T00:22:06.056Z,102044.68
2018-12-13T00:24:33.269Z,102047.98
2018-12-13T00:27:00.377Z,102052.89
2018-12-13T00:29:27.470Z,102046.11
2018-12-13T00:31:54.655Z,102051.05
2018-12-13T00:34:21.772Z,102047.94
2018-12-13T00:36:48.891Z,102043.45
2018-12-13T00:39:16.127Z,102041.37
2018-12-13T00:41:43.266Z,102047.28
2018-12-13T00:44:10.377Z,102040.91
2018-12-13T00:46:37.582Z,102045.52
2018-12-13T00:49:04.815Z,102047.11
2018-12-13T00:51:31.931Z,102048.92
2018-12-13T00:53:59.190Z,102043.19
2018-12-13T00:56:26.288Z,102042.84
2018-12-13T00:58:53.387Z,102045.31
2018-12-13T01:01:20.639Z,102044.48
2018-12-13T01:03:47.719Z,102042.15
2018-12-13T01:06:14.812Z,102046.85
2018-12-13T01:08:41.985Z,102044.09
2018-12-13T01:11:09.103Z,102040.30
2018-12-13T01:13:36.215Z,102041.70
2018-12-13T01:16:03.500Z,102048.20
2018-12-13T01:18:30.663Z,102042.12
2018-12-13T01:20:57.793Z,102036.27
2018-12-13T01:23:25.026Z,102039.39
2018-12-13T01:25:52.147Z,102032.53
2018-12-13T01:28:19.254Z,102036.58
2018-12-13T01:30:46.423Z,102031.44
2018-12-13T01:33:13.518Z,102034.45
2018-12-13T01:35:40.619Z,102029.72
2018-12-13T01:38:07.907Z,102037.06
2018-12-13T01:40:35.032Z,102030.98
2018-12-13T01:43:02.138Z,102036.50
2018-12-13T01:45:29.387Z,102030.98
2018-12-13T01:47:56.500Z,102034.83
2018-12-13T01:50:23.758Z,102031.94
2018-12-13T01:52:50.930Z,102025.12
2018-12-13T01:55:18.127Z,102018.88
2018-12-13T01:57:45.218Z,102031.87
2018-12-13T02:00:12.759Z,102022.78
2018-12-13T02:02:39.883Z,102019.34
2018-12-13T02:05:06.999Z,102025.23
2018-12-13T02:07:34.177Z,102028.14
2018-12-13T02:10:01.284Z,102024.76
2018-12-13T02:12:28.411Z,102019.61
2018-12-13T02:14:55.578Z,102018.68
2018-12-13T02:17:22.790Z,102016.62
2018-12-13T02:19:49.903Z,102009.70
2018-12-13T02:22:18.073Z,102011.41
2018-12-13T02:24:45.207Z,102008.35
2018-12-13T02:27:12.322Z,102010.63
2018-12-13T02:29:39.554Z,102012.20
2018-12-13T02:32:06.760Z,102009.13
2018-12-13T02:34:33.889Z,102009.64
2018-12-13T02:37:05.921Z,102008.30
2018-12-13T02:39:31.316Z,102006.68
2018-12-13T02:41:58.419Z,102003.05
2018-12-13T02:44:25.605Z,102003.35
2018-12-13T02:46:52.752Z,102009.18
2018-12-13T02:49:19.869Z,102003.52
2018-12-13T02:51:47.212Z,102011.83
2018-12-13T02:54:14.509Z,102005.66
2018-12-13T02:56:41.728Z,102007.98
2018-12-13T02:59:08.968Z,102007.36
2018-12-13T03:01:36.098Z,102004.55
2018-12-13T03:04:03.323Z,102001.96
2018-12-13T03:06:30.502Z,101999.34
2018-12-13T03:08:57.616Z,101996.75
2018-12-13T03:11:24.851Z,101988.90
2018-12-13T03:13:52.041Z,101995.19
2018-12-13T03:16:19.156Z,101996.44
2018-12-13T03:18:46.270Z,101992.23
2018-12-13T03:21:13.502Z,101990.69
2018-12-13T03:23:40.629Z,101992.45
2018-12-13T03:26:07.747Z,101984.23
2018-12-13T03:28:34.949Z,101984.38
2018-12-13T03:31:02.084Z,101986.05
2018-12-13T03:33:29.198Z,101992.59
2018-12-13T03:35:56.442Z,101980.13
2018-12-13T03:38:23.555Z,101984.42
2018-12-13T03:40:50.678Z,101986.05
2018-12-13T03:43:17.991Z,101987.50
2018-12-13T03:45:45.192Z,101981.41
2018-12-13T03:48:12.298Z,101976.58
2018-12-13T03:50:39.481Z,101975.43
2018-12-13T03:53:06.587Z,101969.20
2018-12-13T03:55:33.704Z,101972.83
2018-12-13T03:58:01.043Z,101967.63
2018-12-13T04:00:28.214Z,101971.86
2018-12-13T04:02:55.755Z,101973.77
2018-12-13T04:05:22.938Z,101972.46
2018-12-13T04:07:50.070Z,101968.52
2018-12-13T04:10:17.296Z,101969.39
2018-12-13T04:12:44.537Z,101966.75
2018-12-13T04:15:11.658Z,101970.65
2018-12-13T04:17:38.797Z,101960.67
2018-12-13T04:20:06.323Z,101960.30
2018-12-13T04:22:33.431Z,101960.30
2018-12-13T04:25:00.536Z,101963.42
2018-12-13T04:27:27.753Z,101959.52
2018-12-13T04:29:54.871Z,101958.44
2018-12-13T04:32:22.019Z,101955.42
2018-12-13T04:34:49.257Z,101956.77
2018-12-13T04:37:16.386Z,101954.12
2018-12-13T04:39:43.506Z,101943.77
2018-12-13T04:42:10.764Z,101948.55
2018-12-13T04:44:38.007Z,101950.78
2018-12-13T04:47:05.245Z,101953.02
2018-12-13T04:49:32.481Z,101948.65
2018-12-13T04:51:59.600Z,101945.53
2018-12-13T04:54:26.715Z,101944.97
2018-12-13T04:56:54.000Z,101956.82
2018-12-13T04:59:21.182Z,101952.23
2018-12-13T05:01:48.299Z,101952.59
2018-12-13T05:04:15.461Z,101937.88
2018-12-13T05:06:42.562Z,101946.05
2018-12-13T05:09:09.694Z,101944.56
2018-12-13T05:11:36.850Z,101946.84
2018-12-13T05:14:04.094Z,101944.61
2018-12-13T05:16:31.237Z,101943.45
2018-12-13T05:18:58.506Z,101938.30
2018-12-13T05:21:25.615Z,101940.48
2018-12-13T05:23:52.707Z,101939.55
2018-12-13T05:26:19.866Z,101935.75
2018-12-13T05:28:47.098Z,101939.23
2018-12-13T05:31:14.205Z,101944.02
2018-12-13T05:33:41.541Z,101940.25
2018-12-13T05:36:08.799Z,101941.41
2018-12-13T05:38:36.062Z,101938.77
2018-12-13T05:41:03.324Z,101942.86
2018-12-13T05:43:30.677Z,101938.53
2018-12-13T05:45:57.879Z,101938.20
2018-12-13T05:48:25.326Z,101931.80
2018-12-13T05:50:52.497Z,101928.27
2018-12-13T05:53:19.666Z,101923.39
2018-12-13T05:55:46.806Z,101930.31
2018-12-13T05:58:13.897Z,101927.19
2018-12-13T06:00:41.099Z,101926.13
2018-12-13T06:03:08.379Z,101922.28
2018-12-13T06:05:35.490Z,101928.73
2018-12-13T06:08:02.598Z,101928.69
2018-12-13T06:10:29.775Z,101921.30
2018-12-13T06:12:56.988Z,101925.34
2018-12-13T06:15:24.086Z,101925.34
2018-12-13T06:17:51.316Z,101925.20
2018-12-13T06:20:18.427Z,101930.55
2018-12-13T06:22:45.531Z,101936.59
2018-12-13T06:25:12.944Z,101936.26
2018-12-13T06:27:40.101Z,101936.44
2018-12-13T06:30:07.866Z,101936.98
2018-12-13T06:32:35.177Z,101941.52
2018-12-13T06:35:02.463Z,101939.72
2018-12-13T06:37:30.653Z,101938.52
2018-12-13T06:39:57.819Z,101938.52
2018-12-13T06:42:24.959Z,101945.63
2018-12-13T06:44:52.071Z,101939.92
2018-12-13T06:47:19.239Z,101939.28
2018-12-13T06:49:46.363Z,101937.61
2018-12-13T06:52:13.478Z,101940.16
2018-12-13T06:54:40.662Z,101932.78
2018-12-13T06:57:07.778Z,101935.52
2018-12-13T06:59:34.912Z,101931.48
2018-12-13T07:02:02.211Z,101931.80
2018-12-13T07:04:29.304Z,101935.89
2018-12-13T07:06:56.430Z,101936.36
2018-12-13T07:09:23.594Z,101929.56
2018-12-13T07:11:50.696Z,101930.09
2018-12-13T07:14:17.818Z,101931.55
2018-12-13T07:16:44.978Z,101931.80
2018-12-13T07:19:12.095Z,101942.52
2018-12-13T07:21:39.208Z,101938.53
2018-12-13T07:24:06.397Z,101939.19
2018-12-13T07:26:34.334Z,101938.30
2018-12-13T07:29:01.437Z,101941.64
2018-12-13T07:31:28.815Z,101937.14
2018-12-13T07:33:56.113Z,101933.34
2018-12-13T07:36:25.650Z,101941.45
2018-12-13T07:38:53.044Z,101954.90
2018-12-13T07:41:36.489Z,101947.77
2018-12-13T07:44:04.334Z,101953.70
2018-12-13T07:46:32.119Z,101952.50
2018-12-13T07:48:59.244Z,101953.07
2018-12-13T07:51:26.468Z,101953.53
2018-12-13T07:53:53.571Z,101965.43
2018-12-13T07:56:20.695Z,101959.34
2018-12-13T07:58:47.854Z,101957.26
2018-12-13T08:01:14.979Z,101955.13
2018-12-13T08:03:42.183Z,101953.72
2018-12-13T08:06:09.399Z,101957.33
2018-12-13T08:08:36.527Z,101960.81
2018-12-13T08:11:03.647Z,101955.47
2018-12-13T08:13:30.810Z,101961.98
2018-12-13T08:15:57.927Z,101959.17
2018-12-13T08:18:25.046Z,101959.95
2018-12-13T08:20:52.261Z,101953.09
2018-12-13T08:23:19.498Z,101954.69
2018-12-13T08:25:46.602Z,101950.21
2018-12-13T08:28:13.950Z,101951.25
2018-12-13T08:30:41.103Z,101947.87
2018-12-13T08:33:08.231Z,101942.58
2018-12-13T08:35:35.411Z,101945.83
2018-12-13T08:38:03.349Z,101945.38
2018-12-13T08:40:30.531Z,101940.53
2018-12-13T08:42:57.740Z,101938.55
2018-12-13T08:45:24.924Z,101939.89
2018-12-13T08:47:52.050Z,101935.98
2018-12-13T08:50:19.222Z,101944.57
2018-12-13T08:52:46.330Z,101942.61
2018-12-13T08:55:13.455Z,101939.41
2018-12-13T08:57:40.689Z,101937.84
2018-12-13T09:00:08.290Z,101938.53
2018-12-13T09:02:36.298Z,101944.22
2018-12-13T09:05:04.069Z,101938.13
2018-12-13T09:07:31.200Z,101939.02
2018-12-13T09:09:58.316Z,101938.87
2018-12-13T09:12:25.487Z,101938.53
2018-12-13T09:14:52.759Z,101944.86
2018-12-13T09:17:19.899Z,101945.98
2018-12-13T09:19:47.066Z,101946.48
2018-12-13T09:22:14.200Z,101945.50
2018-12-13T09:24:41.363Z,101939.05
2018-12-13T09:27:08.602Z,101944.81
2018-12-13T09:29:35.711Z,101941.28
2018-12-13T09:32:02.862Z,101945.31
2018-12-13T09:34:30.099Z,101941.54
2018-12-13T09:36:57.239Z,101942.47
2018-12-13T09:39:24.489Z,101938.73
2018-12-13T09:41:51.662Z,101942.72
2018-12-13T09:44:18.786Z,101941.03
2018-12-13T09:46:46.655Z,101942.67
2018-12-13T09:49:13.976Z,101945.69
2018-12-13T09:51:41.136Z,101939.38
2018-12-13T09:54:08.264Z,101934.87
2018-12-13T09:56:35.439Z,101928.66
2018-12-13T09:59:02.591Z,101928.19
2018-12-13T10:01:29.713Z,101926.05
2018-12-13T10:03:56.979Z,101921.63
2018-12-13T10:06:24.151Z,101926.55
2018-12-13T10:08:51.263Z,101918.84
2018-12-13T10:11:18.456Z,101921.77
2018-12-13T10:13:45.580Z,101919.62
2018-12-13T10:16:12.847Z,101917.59
2018-12-13T10:18:40.071Z,101915.64
2018-12-13T10:21:07.184Z,101912.58
2018-12-13T10:23:34.290Z,101911.14
2018-12-13T10:26:01.435Z,101906.09
2018-12-13T10:28:28.655Z,101907.52
2018-12-13T10:30:55.784Z,101903.85
2018-12-13T10:33:22.939Z,101904.92
2018-12-13T10:35:50.072Z,101894.75
2018-12-13T10:38:17.291Z,101897.95
2018-12-13T10:40:44.452Z,101899.35
2018-12-13T10:43:11.650Z,101896.42
2018-12-13T10:45:38.749Z,101894.57
2018-12-13T10:48:06.043Z,101893.86
2018-12-13T10:50:33.202Z,101887.83
2018-12-13T10:53:00.310Z,101892.48
2018-12-13T10:55:27.459Z,101890.89
2018-12-13T10:57:54.795Z,101888.20
2018-12-13T11:00:27.704Z,101879.47
2018-12-13T11:03:12.141Z,101882.42
2018-12-13T11:05:39.318Z,101875.02
2018-12-13T11:08:06.521Z,101881.70
2018-12-13T11:10:33.759Z,101878.52
2018-12-13T11:13:01.000Z,101878.30
2018-12-13T11:15:28.126Z,101877.06
2018-12-13T11:17:55.242Z,101877.48
2018-12-13T11:20:22.503Z,101878.50
2018-12-13T11:22:49.619Z,101875.05
2018-12-13T11:25:16.883Z,101874.08
2018-12-13T11:28:41.870Z,101876.54
2018-12-13T11:31:08.981Z,101879.05
2018-12-13T11:33:36.107Z,101873.75
2018-12-13T11:36:03.364Z,101884.59
2018-12-13T11:38:30.483Z,101884.81
2018-12-13T11:40:57.605Z,101881.67
2018-12-13T11:43:24.778Z,101882.98
2018-12-13T11:45:51.951Z,101882.80
2018-12-13T11:48:19.226Z,101879.03
2018-12-13T11:50:46.394Z,101884.90
2018-12-13T11:53:13.535Z,101890.19
2018-12-13T11:55:40.710Z,101887.50
2018-12-13T11:58:09.459Z,101880.92
2018-12-13T12:00:36.578Z,101884.44
2018-12-13T12:03:03.707Z,101882.21
2018-12-13T12:05:31.043Z,101883.77
2018-12-13T12:07:58.191Z,101883.09
2018-12-13T12:10:25.522Z,101886.53
2018-12-13T12:12:52.690Z,101884.36
2018-12-13T12:15:19.839Z,101872.00
2018-12-13T12:20:40.007Z,101874.36
2018-12-13T12:23:07.154Z,101870.52
2018-12-13T12:25:34.247Z,101871.46
2018-12-13T12:28:01.359Z,101866.95
2018-12-13T12:30:28.517Z,101870.44
2018-12-13T12:32:55.638Z,101868.67
2018-12-13T12:35:22.818Z,101866.59
2018-12-13T12:37:50.047Z,101865.06
2018-12-13T12:40:17.175Z,101857.22
2018-12-13T12:42:44.283Z,101865.84
2018-12-13T12:45:11.482Z,101867.01
2018-12-13T12:47:38.695Z,101866.06
2018-12-13T12:50:07.292Z,101862.59
2018-12-13T12:52:34.588Z,101863.23
2018-12-13T12:55:01.921Z,101858.48
2018-12-13T12:57:29.207Z,101854.91
2018-12-13T12:59:57.315Z,101853.61
2018-12-13T13:02:24.431Z,101855.66
2018-12-13T13:04:53.207Z,101852.98
2018-12-13T13:07:20.415Z,101851.34
2018-12-13T13:09:47.567Z,101851.28
2018-12-13T13:12:14.819Z,101849.79
2018-12-13T13:14:42.613Z,101853.47
2018-12-13T13:17:10.399Z,101853.31
2018-12-13T13:19:37.634Z,101850.34
2018-12-13T13:26:54.908Z,101853.36
2018-12-13T13:29:22.076Z,101850.92
2018-12-13T13:31:49.561Z,101850.63
2018-12-13T13:34:16.722Z,101858.83
2018-12-13T13:36:44.140Z,101856.38
2018-12-13T13:39:11.344Z,101849.20
2018-12-13T13:41:38.654Z,101849.83
2018-12-13T13:44:05.911Z,101854.03
2018-12-13T13:46:33.026Z,101847.54
2018-12-13T13:49:00.171Z,101856.53
2018-12-13T13:51:27.474Z,101856.89
2018-12-13T13:53:54.695Z,101858.34
2018-12-13T13:56:22.299Z,101857.53
2018-12-13T13:58:49.519Z,101859.19
2018-12-13T14:01:16.607Z,101863.03
2018-12-13T14:03:43.790Z,101857.26
2018-12-13T14:06:10.944Z,101862.61
2018-12-13T14:08:38.054Z,101862.73
2018-12-13T14:11:05.514Z,101865.56
2018-12-13T14:13:32.697Z,101858.23
2018-12-13T14:15:59.844Z,101861.94
2018-12-13T14:18:27.010Z,101856.89
2018-12-13T14:20:54.124Z,101856.58
2018-12-13T14:23:21.384Z,101856.16
2018-12-13T14:25:48.599Z,101856.07
2018-12-13T14:28:15.759Z,101860.63
2018-12-13T14:30:42.904Z,101858.48
2018-12-13T14:33:10.086Z,101856.05
2018-12-13T14:35:37.278Z,101859.15
2018-12-13T14:38:04.407Z,101857.03
2018-12-13T14:40:31.646Z,101853.25
2018-12-13T14:42:58.778Z,101854.44
2018-12-13T14:45:25.934Z,101852.81
2018-12-13T14:47:53.112Z,101851.14
2018-12-13T14:50:20.210Z,101855.19
2018-12-13T14:52:47.459Z,101856.46
2018-12-13T14:55:14.678Z,101851.97
2018-12-13T14:57:41.825Z,101852.91
2018-12-13T15:00:11.102Z,101849.48
2018-12-13T15:02:38.333Z,101844.61
2018-12-13T15:05:06.223Z,101849.67
2018-12-13T15:07:33.471Z,101854.62
2018-12-13T15:10:00.733Z,101846.00
2018-12-13T15:12:27.836Z,101855.52
2018-12-13T15:14:55.022Z,101850.64
2018-12-13T15:17:22.192Z,101851.09
2018-12-13T15:19:49.332Z,101855.67
2018-12-13T15:22:16.443Z,101851.31
2018-12-13T15:24:43.656Z,101848.55
2018-12-13T15:27:10.771Z,101854.67
2018-12-13T15:29:37.985Z,101856.34
2018-12-13T15:32:05.143Z,101865.20
2018-12-13T15:34:32.251Z,101869.23
2018-12-13T15:36:59.378Z,101859.21
2018-12-13T15:39:26.518Z,101856.10
2018-12-13T15:41:53.655Z,101852.52
2018-12-13T15:44:20.763Z,101854.20
2018-12-13T15:46:47.938Z,101862.38
2018-12-13T15:49:15.175Z,101854.19
2018-12-13T15:51:42.355Z,101845.77
2018-12-13T15:54:09.559Z,101854.30
2018-12-13T15:56:36.758Z,101851.76
2018-12-13T15:59:04.021Z,101850.72
2018-12-13T16:01:31.234Z,101854.94
2018-12-13T16:03:58.496Z,101851.80
2018-12-13T16:06:25.743Z,101847.91
2018-12-13T16:08:52.934Z,101843.44
2018-12-13T16:11:20.061Z,101843.02
2018-12-13T16:13:47.191Z,101852.11
2018-12-13T16:16:14.505Z,101850.00
2018-12-13T16:18:41.633Z,101857.26
2018-12-13T16:21:08.818Z,101852.12
2018-12-13T16:23:36.039Z,101858.51
2018-12-13T16:26:03.146Z,101846.15
2018-12-13T16:28:30.248Z,101847.61
2018-12-13T16:30:57.381Z,101849.52
2018-12-13T16:33:24.495Z,101847.08
2018-12-13T16:35:51.584Z,101841.00
2018-12-13T16:38:18.740Z,101841.42
2018-12-13T16:40:45.868Z,101845.78
2018-12-13T16:43:12.991Z,101845.22
2018-12-13T16:45:40.328Z,101850.66
2018-12-13T16:48:07.420Z,101855.48
2018-12-13T16:50:34.526Z,101854.28
2018-12-13T16:53:01.756Z,101863.37
2018-12-13T16:55:28.836Z,101862.80
2018-12-13T16:57:55.921Z,101863.22
2018-12-13T17:00:23.088Z,101862.19
2018-12-13T17:02:50.195Z,101862.02
2018-12-13T17:05:17.293Z,101864.52
2018-12-13T17:07:44.428Z,101866.43
2018-12-13T17:10:16.728Z,101861.33
2018-12-13T17:12:40.647Z,101859.42
2018-12-13T17:15:07.925Z,101855.73
2018-12-13T17:17:35.106Z,101859.25
2018-12-13T17:20:02.463Z,101861.02
2018-12-13T17:22:29.616Z,101857.20
2018-12-13T17:24:56.737Z,101855.84
2018-12-13T17:27:23.849Z,101856.50
2018-12-13T17:29:51.010Z,101853.96
2018-12-13T17:32:18.107Z,101844.93
2018-12-13T17:34:45.207Z,101845.17
2018-12-13T17:37:12.365Z,101847.72
2018-12-13T17:39:39.480Z,101858.29
2018-12-13T17:42:06.603Z,101851.33
2018-12-13T17:44:33.860Z,101853.83
2018-12-13T17:47:00.970Z,101855.12
2018-12-13T17:49:28.090Z,101857.30
2018-12-13T17:51:55.283Z,101851.92
2018-12-13T17:54:22.390Z,101855.41
2018-12-13T17:56:49.616Z,101864.36
2018-12-13T17:59:16.802Z,101856.80
2018-12-13T18:01:43.943Z,101853.98
2018-12-13T18:04:11.058Z,101858.47
2018-12-13T18:06:38.215Z,101862.73
2018-12-13T18:09:07.404Z,101856.31
2018-12-13T18:11:34.753Z,101857.20
2018-12-13T18:14:02.196Z,101856.00
2018-12-13T18:16:29.368Z,101852.58
2018-12-13T18:18:56.531Z,101856.19
2018-12-13T18:21:23.675Z,101861.23
2018-12-13T18:23:50.776Z,101859.05
2018-12-13T18:26:17.869Z,101856.45
2018-12-13T18:28:45.013Z,101854.80
2018-12-13T18:31:12.102Z,101856.19
2018-12-13T18:33:39.244Z,101858.86
2018-12-13T18:36:06.398Z,101866.94
2018-12-13T18:38:33.500Z,101865.17
2018-12-13T18:41:00.699Z,101869.66
2018-12-13T18:43:27.872Z,101874.84
2018-12-13T18:45:54.990Z,101873.78
2018-12-13T18:48:22.088Z,101873.13
2018-12-13T18:50:49.281Z,101877.17
2018-12-13T18:53:16.438Z,101885.47
2018-12-13T18:55:43.535Z,101888.83
2018-12-13T18:58:10.719Z,101883.91
2018-12-13T19:00:37.844Z,101893.59
2018-12-13T19:03:04.963Z,101890.38
2018-12-13T19:05:32.130Z,101891.55
2018-12-13T19:07:59.242Z,101883.39
2018-12-13T19:10:26.335Z,101886.80
2018-12-13T19:12:53.504Z,101887.50
2018-12-13T19:15:20.677Z,101886.34
2018-12-13T19:17:47.781Z,101889.28
2018-12-13T19:20:15.048Z,101892.48
2018-12-13T19:22:42.166Z,101898.44
2018-12-13T19:25:10.039Z,101895.30
2018-12-13T19:27:37.417Z,101901.68
2018-12-13T19:30:05.879Z,101896.44
2018-12-13T19:32:32.992Z,101905.00
2018-12-13T19:35:00.388Z,101910.37
2018-12-13T19:37:27.698Z,101902.98
2018-12-13T19:39:54.836Z,101905.30
2018-12-13T19:42:21.999Z,101904.06
2018-12-13T19:44:49.184Z,101904.05
2018-12-13T19:47:16.302Z,101897.05
2018-12-13T19:49:43.467Z,101903.59
2018-12-13T19:52:10.563Z,101905.77
2018-12-13T19:54:37.811Z,101907.89
2018-12-13T19:57:04.991Z,101908.66
2018-12-13T19:59:32.106Z,101906.23
2018-12-13T20:01:59.276Z,101906.64
2018-12-13T20:04:26.471Z,101911.53
2018-12-13T20:06:53.590Z,101909.82
2018-12-13T20:09:20.703Z,101915.23
2018-12-13T20:11:47.970Z,101912.36
2018-12-13T20:14:15.096Z,101922.06
2018-12-13T20:16:42.479Z,101917.59
2018-12-13T20:19:09.831Z,101920.73
2018-12-13T20:21:37.011Z,101923.78
2018-12-13T20:24:04.205Z,101921.59
2018-12-13T20:26:31.675Z,101916.52
2018-12-13T20:28:58.816Z,101918.95
2018-12-13T20:31:25.928Z,101915.83
2018-12-13T20:33:53.178Z,101917.95
2018-12-13T20:36:20.494Z,101920.77
2018-12-13T20:38:47.720Z,101911.03
2018-12-13T20:41:14.891Z,101913.23
2018-12-13T20:43:41.990Z,101915.42
2018-12-13T20:46:09.185Z,101921.66
2018-12-13T20:48:36.493Z,101917.59
2018-12-13T20:51:03.773Z,101923.72
2018-12-13T20:53:30.975Z,101929.09
2018-12-13T20:55:58.142Z,101926.50
2018-12-13T20:58:25.239Z,101928.49
2018-12-13T21:00:52.458Z,101932.80
2018-12-13T21:03:19.726Z,101926.62
2018-12-13T21:05:46.932Z,101934.45
2018-12-13T21:08:14.138Z,101933.89
2018-12-13T21:10:41.318Z,101940.87
2018-12-13T21:13:08.529Z,101939.86
2018-12-13T21:15:35.770Z,101937.39
2018-12-13T21:18:03.209Z,101935.25
2018-12-13T21:20:30.510Z,101942.16
2018-12-13T21:22:57.746Z,101942.85
2018-12-13T21:25:25.205Z,101941.85
2018-12-13T21:27:52.367Z,101943.00
2018-12-13T21:30:19.486Z,101936.73
2018-12-13T21:32:46.642Z,101943.16
2018-12-13T21:35:13.927Z,101934.91
2018-12-13T21:37:43.118Z,101941.28
2018-12-13T21:40:10.607Z,101935.97
2018-12-13T21:42:37.819Z,101936.88
2018-12-13T21:45:05.407Z,101937.37
2018-12-13T21:47:32.674Z,101940.53
2018-12-13T21:49:59.904Z,101937.41
2018-12-13T21:52:27.031Z,101941.50
2018-12-13T21:54:54.402Z,101930.41
2018-12-13T21:57:21.925Z,101937.52
2018-12-13T21:59:49.034Z,101934.60
2018-12-13T22:02:16.378Z,101936.77
2018-12-13T22:04:43.609Z,101934.45
2018-12-13T22:07:10.713Z,101936.21
2018-12-13T22:09:37.933Z,101936.83
2018-12-13T22:12:05.044Z,101936.48
2018-12-13T22:14:32.274Z,101938.48
2018-12-13T22:16:59.446Z,101944.60
2018-12-13T22:19:26.545Z,101942.90
2018-12-13T22:21:53.651Z,101943.39
2018-12-13T22:24:20.892Z,101938.63
2018-12-13T22:26:48.039Z,101944.60
2018-12-13T22:29:15.155Z,101948.02
2018-12-13T22:31:42.435Z,101947.69
2018-12-13T22:34:09.681Z,101948.72
2018-12-13T22:36:37.092Z,101951.38
2018-12-13T22:39:05.715Z,101942.72
2018-12-13T22:41:32.807Z,101939.69
2018-12-13T22:43:59.912Z,101944.95
2018-12-13T22:46:27.075Z,101946.25
2018-12-13T22:48:54.207Z,101939.06
2018-12-13T22:51:21.326Z,101942.52
2018-12-13T22:53:48.495Z,101940.06
2018-12-13T22:56:15.616Z,101942.92
2018-12-13T22:58:42.863Z,101941.36
2018-12-13T23:01:10.102Z,101941.83
2018-12-13T23:03:37.537Z,101945.52
2018-12-13T23:06:04.745Z,101942.45
2018-12-13T23:08:31.984Z,101941.22
2018-12-13T23:10:59.214Z,101934.95
2018-12-13T23:13:26.317Z,101935.92
2018-12-13T23:15:54.781Z,101945.19
2018-12-13T23:18:22.083Z,101938.86
2018-12-13T23:20:49.202Z,101941.28
2018-12-13T23:23:16.375Z,101941.75
2018-12-13T23:25:43.710Z,101937.06
2018-12-13T23:28:10.832Z,101935.86
2018-12-13T23:30:38.036Z,101938.45
2018-12-13T23:33:05.145Z,101933.27
2018-12-13T23:35:32.255Z,101935.45
2018-12-13T23:37:59.418Z,101932.44
2018-12-13T23:40:26.774Z,101939.83
2018-12-13T23:42:53.866Z,101939.72
2018-12-13T23:45:21.114Z,101931.39
2018-12-13T23:47:48.238Z,101928.62
2018-12-13T23:50:15.352Z,101932.21
2018-12-13T23:52:42.506Z,101923.88
2018-12-13T23:55:09.611Z,101930.83
2018-12-13T23:57:36.782Z,101931.44
